sensor_id;sensor_type;location;lat;lon;timestamp;P1;durP1;ratioP1;P2;durP2;ratioP2
69856;SDS011;57147;53.582;10.112;2023-04-25T00:02:21;7.80;;;4.30;;
69856;SDS011;57147;53.582;10.112;2023-04-25T00:07:22;8.80;;;4.70;;
69856;SDS011;57147;53.582;10.112;2023-04-25T00:12:22;8.70;;;5.70;;
69856;SDS011;57147;53.582;10.112;2023-04-25T00:17:26;8.52;;;5.32;;
69856;SDS011;57147;53.582;10.112;2023-04-25T00:22:26;10.43;;;4.32;;
69856;SDS011;57147;53.582;10.112;2023-04-25T00:27:27;10.18;;;4.75;;
69856;SDS011;57147;53.582;10.112;2023-04-25T00:32:30;18.15;;;5.00;;
69856;SDS011;57147;53.582;10.112;2023-04-25T00:37:31;16.08;;;5.22;;
69856;SDS011;57147;53.582;10.112;2023-04-25T00:42:31;13.13;;;3.53;;
69856;SDS011;57147;53.582;10.112;2023-04-25T00:47:35;17.80;;;4.10;;
69856;SDS011;57147;53.582;10.112;2023-04-25T00:52:36;17.73;;;3.63;;
69856;SDS011;57147;53.582;10.112;2023-04-25T00:57:38;16.98;;;3.38;;
69856;SDS011;57147;53.582;10.112;2023-04-25T01:02:43;18.08;;;3.50;;
69856;SDS011;57147;53.582;10.112;2023-04-25T01:07:44;17.73;;;2.97;;
69856;SDS011;57147;53.582;10.112;2023-04-25T01:12:45;20.85;;;3.53;;
69856;SDS011;57147;53.582;10.112;2023-04-25T01:17:49;15.45;;;3.15;;
69856;SDS011;57147;53.582;10.112;2023-04-25T01:22:52;21.08;;;3.22;;
69856;SDS011;57147;53.582;10.112;2023-04-25T01:27:53;16.50;;;3.60;;
69856;SDS011;57147;53.582;10.112;2023-04-25T01:32:54;17.88;;;3.58;;
69856;SDS011;57147;53.582;10.112;2023-04-25T01:37:58;17.48;;;3.33;;
69856;SDS011;57147;53.582;10.112;2023-04-25T01:42:59;24.48;;;4.35;;
69856;SDS011;57147;53.582;10.112;2023-04-25T01:48:00;16.50;;;3.53;;
69856;SDS011;57147;53.582;10.112;2023-04-25T01:53:03;19.88;;;4.78;;
69856;SDS011;57147;53.582;10.112;2023-04-25T01:58:04;22.13;;;5.22;;
69856;SDS011;57147;53.582;10.112;2023-04-25T02:03:05;22.00;;;4.20;;
69856;SDS011;57147;53.582;10.112;2023-04-25T02:08:08;15.68;;;4.18;;
69856;SDS011;57147;53.582;10.112;2023-04-25T02:13:09;16.75;;;3.05;;
69856;SDS011;57147;53.582;10.112;2023-04-25T02:18:10;18.27;;;4.20;;
69856;SDS011;57147;53.582;10.112;2023-04-25T02:23:13;22.27;;;3.95;;
69856;SDS011;57147;53.582;10.112;2023-04-25T02:28:14;21.10;;;3.58;;
69856;SDS011;57147;53.582;10.112;2023-04-25T02:33:14;20.88;;;3.28;;
69856;SDS011;57147;53.582;10.112;2023-04-25T02:38:17;20.15;;;4.15;;
69856;SDS011;57147;53.582;10.112;2023-04-25T02:43:18;18.85;;;3.67;;
69856;SDS011;57147;53.582;10.112;2023-04-25T02:48:19;16.80;;;5.13;;
69856;SDS011;57147;53.582;10.112;2023-04-25T02:53:22;12.80;;;2.35;;
69856;SDS011;57147;53.582;10.112;2023-04-25T02:58:22;14.88;;;3.03;;
69856;SDS011;57147;53.582;10.112;2023-04-25T03:03:23;16.52;;;2.85;;
69856;SDS011;57147;53.582;10.112;2023-04-25T03:08:26;15.73;;;5.15;;
69856;SDS011;57147;53.582;10.112;2023-04-25T03:13:27;14.15;;;2.80;;
69856;SDS011;57147;53.582;10.112;2023-04-25T03:18:28;12.32;;;2.50;;
69856;SDS011;57147;53.582;10.112;2023-04-25T03:23:31;16.90;;;3.08;;
69856;SDS011;57147;53.582;10.112;2023-04-25T03:28:31;10.45;;;2.40;;
69856;SDS011;57147;53.582;10.112;2023-04-25T03:33:32;19.90;;;3.33;;
69856;SDS011;57147;53.582;10.112;2023-04-25T03:38:35;14.15;;;2.38;;
69856;SDS011;57147;53.582;10.112;2023-04-25T03:43:36;11.55;;;3.17;;
69856;SDS011;57147;53.582;10.112;2023-04-25T03:48:36;12.55;;;2.58;;
69856;SDS011;57147;53.582;10.112;2023-04-25T03:53:40;18.15;;;3.03;;
69856;SDS011;57147;53.582;10.112;2023-04-25T03:58:40;14.57;;;2.97;;
69856;SDS011;57147;53.582;10.112;2023-04-25T04:03:41;12.73;;;2.38;;
69856;SDS011;57147;53.582;10.112;2023-04-25T04:08:44;12.30;;;2.15;;
69856;SDS011;57147;53.582;10.112;2023-04-25T04:13:45;18.85;;;3.53;;
69856;SDS011;57147;53.582;10.112;2023-04-25T04:18:45;15.50;;;2.88;;
69856;SDS011;57147;53.582;10.112;2023-04-25T04:23:49;12.35;;;2.58;;
69856;SDS011;57147;53.582;10.112;2023-04-25T04:28:49;10.60;;;2.55;;
69856;SDS011;57147;53.582;10.112;2023-04-25T04:33:50;12.27;;;3.65;;
69856;SDS011;57147;53.582;10.112;2023-04-25T04:38:53;8.80;;;2.05;;
69856;SDS011;57147;53.582;10.112;2023-04-25T04:43:54;11.38;;;3.08;;
69856;SDS011;57147;53.582;10.112;2023-04-25T04:48:57;13.15;;;2.22;;
69856;SDS011;57147;53.582;10.112;2023-04-25T04:54:02;11.63;;;2.58;;
69856;SDS011;57147;53.582;10.112;2023-04-25T04:59:04;12.20;;;3.30;;
69856;SDS011;57147;53.582;10.112;2023-04-25T05:04:05;9.80;;;2.58;;
69856;SDS011;57147;53.582;10.112;2023-04-25T05:09:08;10.82;;;4.03;;
69856;SDS011;57147;53.582;10.112;2023-04-25T05:14:12;13.43;;;2.53;;
69856;SDS011;57147;53.582;10.112;2023-04-25T05:19:13;9.77;;;2.60;;
69856;SDS011;57147;53.582;10.112;2023-04-25T05:24:16;13.88;;;3.45;;
69856;SDS011;57147;53.582;10.112;2023-04-25T05:29:16;10.45;;;2.33;;
69856;SDS011;57147;53.582;10.112;2023-04-25T05:34:17;8.55;;;3.13;;
69856;SDS011;57147;53.582;10.112;2023-04-25T05:39:23;12.75;;;2.05;;
69856;SDS011;57147;53.582;10.112;2023-04-25T05:44:24;10.88;;;2.05;;
69856;SDS011;57147;53.582;10.112;2023-04-25T05:49:25;11.60;;;2.75;;
69856;SDS011;57147;53.582;10.112;2023-04-25T05:54:28;13.65;;;2.58;;
69856;SDS011;57147;53.582;10.112;2023-04-25T05:59:28;14.02;;;2.42;;
69856;SDS011;57147;53.582;10.112;2023-04-25T06:04:29;10.30;;;2.40;;
69856;SDS011;57147;53.582;10.112;2023-04-25T06:09:33;9.73;;;2.03;;
69856;SDS011;57147;53.582;10.112;2023-04-25T06:14:38;10.73;;;2.03;;
69856;SDS011;57147;53.582;10.112;2023-04-25T06:19:39;8.13;;;2.28;;
69856;SDS011;57147;53.582;10.112;2023-04-25T06:24:46;8.25;;;2.45;;
69856;SDS011;57147;53.582;10.112;2023-04-25T06:29:50;12.43;;;1.85;;
69856;SDS011;57147;53.582;10.112;2023-04-25T06:34:50;14.35;;;2.22;;
69856;SDS011;57147;53.582;10.112;2023-04-25T06:39:54;11.13;;;1.63;;
69856;SDS011;57147;53.582;10.112;2023-04-25T06:44:54;10.95;;;2.60;;
69856;SDS011;57147;53.582;10.112;2023-04-25T06:49:55;9.35;;;2.30;;
69856;SDS011;57147;53.582;10.112;2023-04-25T06:55:05;15.00;;;1.98;;
69856;SDS011;57147;53.582;10.112;2023-04-25T07:00:15;13.75;;;2.20;;
69856;SDS011;57147;53.582;10.112;2023-04-25T07:05:17;10.40;;;2.15;;
69856;SDS011;57147;53.582;10.112;2023-04-25T07:10:32;11.02;;;1.67;;
69856;SDS011;57147;53.582;10.112;2023-04-25T07:15:32;7.28;;;1.80;;
69856;SDS011;57147;53.582;10.112;2023-04-25T07:20:33;9.98;;;1.77;;
69856;SDS011;57147;53.582;10.112;2023-04-25T07:25:38;7.32;;;1.33;;
69856;SDS011;57147;53.582;10.112;2023-04-25T07:30:41;6.22;;;1.20;;
69856;SDS011;57147;53.582;10.112;2023-04-25T07:35:42;8.55;;;1.35;;
69856;SDS011;57147;53.582;10.112;2023-04-25T07:40:45;11.15;;;2.15;;
69856;SDS011;57147;53.582;10.112;2023-04-25T07:45:50;9.07;;;1.23;;
69856;SDS011;57147;53.582;10.112;2023-04-25T07:50:51;10.35;;;2.25;;
69856;SDS011;57147;53.582;10.112;2023-04-25T07:55:54;8.63;;;1.88;;
69856;SDS011;57147;53.582;10.112;2023-04-25T08:00:55;9.35;;;1.80;;
69856;SDS011;57147;53.582;10.112;2023-04-25T08:05:55;4.78;;;2.03;;
69856;SDS011;57147;53.582;10.112;2023-04-25T08:10:59;8.57;;;2.15;;
69856;SDS011;57147;53.582;10.112;2023-04-25T08:15:59;16.75;;;2.10;;
69856;SDS011;57147;53.582;10.112;2023-04-25T08:21:00;12.32;;;1.65;;
69856;SDS011;57147;53.582;10.112;2023-04-25T08:26:03;8.75;;;2.00;;
69856;SDS011;57147;53.582;10.112;2023-04-25T08:31:04;7.63;;;3.58;;
69856;SDS011;57147;53.582;10.112;2023-04-25T08:36:05;6.00;;;1.90;;
69856;SDS011;57147;53.582;10.112;2023-04-25T08:41:08;7.80;;;2.58;;
69856;SDS011;57147;53.582;10.112;2023-04-25T08:46:11;12.63;;;2.17;;
69856;SDS011;57147;53.582;10.112;2023-04-25T08:51:15;7.15;;;1.08;;
69856;SDS011;57147;53.582;10.112;2023-04-25T08:56:25;12.07;;;2.67;;
69856;SDS011;57147;53.582;10.112;2023-04-25T09:01:26;9.57;;;1.88;;
69856;SDS011;57147;53.582;10.112;2023-04-25T09:06:27;9.88;;;1.83;;
69856;SDS011;57147;53.582;10.112;2023-04-25T09:11:31;7.43;;;1.25;;
69856;SDS011;57147;53.582;10.112;2023-04-25T09:16:32;9.43;;;2.08;;
69856;SDS011;57147;53.582;10.112;2023-04-25T09:21:32;8.13;;;1.85;;
69856;SDS011;57147;53.582;10.112;2023-04-25T09:26:37;8.60;;;1.73;;
69856;SDS011;57147;53.582;10.112;2023-04-25T09:31:38;4.78;;;1.58;;
69856;SDS011;57147;53.582;10.112;2023-04-25T09:36:38;9.38;;;1.58;;
69856;SDS011;57147;53.582;10.112;2023-04-25T09:41:46;7.82;;;1.88;;
69856;SDS011;57147;53.582;10.112;2023-04-25T09:46:49;8.25;;;2.45;;
69856;SDS011;57147;53.582;10.112;2023-04-25T09:51:56;8.90;;;1.40;;
69856;SDS011;57147;53.582;10.112;2023-04-25T09:56:59;5.13;;;1.95;;
69856;SDS011;57147;53.582;10.112;2023-04-25T10:02:05;6.20;;;1.92;;
69856;SDS011;57147;53.582;10.112;2023-04-25T10:07:07;8.27;;;1.67;;
69856;SDS011;57147;53.582;10.112;2023-04-25T10:12:11;8.65;;;1.42;;
69856;SDS011;57147;53.582;10.112;2023-04-25T10:17:12;5.88;;;1.08;;
69856;SDS011;57147;53.582;10.112;2023-04-25T10:22:14;5.18;;;2.05;;
69856;SDS011;57147;53.582;10.112;2023-04-25T10:27:21;7.43;;;1.73;;
69856;SDS011;57147;53.582;10.112;2023-04-25T10:32:21;4.20;;;1.33;;
69856;SDS011;57147;53.582;10.112;2023-04-25T10:37:22;5.07;;;1.45;;
69856;SDS011;57147;53.582;10.112;2023-04-25T10:42:27;5.57;;;1.58;;
69856;SDS011;57147;53.582;10.112;2023-04-25T10:47:34;9.38;;;1.45;;
69856;SDS011;57147;53.582;10.112;2023-04-25T10:52:35;3.83;;;2.13;;
69856;SDS011;57147;53.582;10.112;2023-04-25T10:57:42;5.55;;;1.80;;
69856;SDS011;57147;53.582;10.112;2023-04-25T11:02:44;6.25;;;1.60;;
69856;SDS011;57147;53.582;10.112;2023-04-25T11:07:48;8.55;;;2.45;;
69856;SDS011;57147;53.582;10.112;2023-04-25T11:12:53;10.23;;;2.10;;
69856;SDS011;57147;53.582;10.112;2023-04-25T11:17:54;3.28;;;1.20;;
69856;SDS011;57147;53.582;10.112;2023-04-25T11:22:56;5.68;;;2.10;;
69856;SDS011;57147;53.582;10.112;2023-04-25T11:28:00;7.78;;;1.05;;
69856;SDS011;57147;53.582;10.112;2023-04-25T11:33:01;3.95;;;1.02;;
69856;SDS011;57147;53.582;10.112;2023-04-25T11:38:01;6.75;;;1.83;;
69856;SDS011;57147;53.582;10.112;2023-04-25T11:43:04;4.50;;;1.42;;
69856;SDS011;57147;53.582;10.112;2023-04-25T11:48:05;5.18;;;1.48;;
69856;SDS011;57147;53.582;10.112;2023-04-25T11:53:06;5.25;;;1.40;;
69856;SDS011;57147;53.582;10.112;2023-04-25T11:58:09;2.75;;;1.38;;
69856;SDS011;57147;53.582;10.112;2023-04-25T12:03:09;5.78;;;1.58;;
69856;SDS011;57147;53.582;10.112;2023-04-25T12:08:10;4.78;;;1.20;;
69856;SDS011;57147;53.582;10.112;2023-04-25T12:13:20;6.25;;;1.23;;
69856;SDS011;57147;53.582;10.112;2023-04-25T12:18:23;5.25;;;1.10;;
69856;SDS011;57147;53.582;10.112;2023-04-25T12:23:28;2.58;;;1.08;;
69856;SDS011;57147;53.582;10.112;2023-04-25T12:28:32;2.85;;;1.35;;
69856;SDS011;57147;53.582;10.112;2023-04-25T12:33:33;4.57;;;1.00;;
69856;SDS011;57147;53.582;10.112;2023-04-25T12:38:35;4.70;;;1.33;;
69856;SDS011;57147;53.582;10.112;2023-04-25T12:43:39;4.78;;;1.00;;
69856;SDS011;57147;53.582;10.112;2023-04-25T12:48:41;3.78;;;0.88;;
69856;SDS011;57147;53.582;10.112;2023-04-25T12:53:42;4.90;;;1.40;;
69856;SDS011;57147;53.582;10.112;2023-04-25T12:58:45;6.25;;;1.92;;
69856;SDS011;57147;53.582;10.112;2023-04-25T13:03:46;4.20;;;1.23;;
69856;SDS011;57147;53.582;10.112;2023-04-25T13:08:47;6.63;;;1.33;;
69856;SDS011;57147;53.582;10.112;2023-04-25T13:13:50;3.28;;;1.75;;
69856;SDS011;57147;53.582;10.112;2023-04-25T13:18:51;3.83;;;0.88;;
69856;SDS011;57147;53.582;10.112;2023-04-25T13:23:51;5.63;;;2.60;;
69856;SDS011;57147;53.582;10.112;2023-04-25T13:28:54;3.67;;;0.65;;
69856;SDS011;57147;53.582;10.112;2023-04-25T13:33:55;4.15;;;1.33;;
69856;SDS011;57147;53.582;10.112;2023-04-25T13:38:56;4.30;;;1.80;;
69856;SDS011;57147;53.582;10.112;2023-04-25T13:43:59;5.45;;;2.05;;
69856;SDS011;57147;53.582;10.112;2023-04-25T13:49:00;4.72;;;1.65;;
69856;SDS011;57147;53.582;10.112;2023-04-25T13:54:00;4.57;;;1.27;;
69856;SDS011;57147;53.582;10.112;2023-04-25T13:59:03;6.72;;;1.55;;
69856;SDS011;57147;53.582;10.112;2023-04-25T14:04:04;6.65;;;1.15;;
69856;SDS011;57147;53.582;10.112;2023-04-25T14:09:05;6.95;;;2.58;;
69856;SDS011;57147;53.582;10.112;2023-04-25T14:14:08;4.18;;;1.25;;
69856;SDS011;57147;53.582;10.112;2023-04-25T14:19:08;4.20;;;0.93;;
69856;SDS011;57147;53.582;10.112;2023-04-25T14:24:09;7.38;;;3.10;;
69856;SDS011;57147;53.582;10.112;2023-04-25T14:29:13;6.63;;;2.25;;
69856;SDS011;57147;53.582;10.112;2023-04-25T14:34:13;3.80;;;1.75;;
69856;SDS011;57147;53.582;10.112;2023-04-25T14:39:14;6.38;;;1.25;;
69856;SDS011;57147;53.582;10.112;2023-04-25T14:44:17;7.90;;;2.50;;
69856;SDS011;57147;53.582;10.112;2023-04-25T14:49:19;4.82;;;1.30;;
69856;SDS011;57147;53.582;10.112;2023-04-25T14:54:21;5.95;;;1.40;;
69856;SDS011;57147;53.582;10.112;2023-04-25T14:59:24;7.82;;;2.00;;
69856;SDS011;57147;53.582;10.112;2023-04-25T15:04:25;8.45;;;1.92;;
69856;SDS011;57147;53.582;10.112;2023-04-25T15:09:25;5.63;;;1.05;;
69856;SDS011;57147;53.582;10.112;2023-04-25T15:14:29;7.88;;;1.00;;
69856;SDS011;57147;53.582;10.112;2023-04-25T15:19:29;4.82;;;1.55;;
69856;SDS011;57147;53.582;10.112;2023-04-25T15:24:30;4.50;;;1.67;;
69856;SDS011;57147;53.582;10.112;2023-04-25T15:29:33;6.50;;;1.35;;
69856;SDS011;57147;53.582;10.112;2023-04-25T15:34:34;5.15;;;1.25;;
69856;SDS011;57147;53.582;10.112;2023-04-25T15:39:34;4.40;;;0.93;;
69856;SDS011;57147;53.582;10.112;2023-04-25T15:44:37;7.63;;;1.75;;
69856;SDS011;57147;53.582;10.112;2023-04-25T15:49:38;6.57;;;1.13;;
69856;SDS011;57147;53.582;10.112;2023-04-25T15:54:39;6.47;;;2.00;;
69856;SDS011;57147;53.582;10.112;2023-04-25T15:59:42;5.57;;;0.95;;
69856;SDS011;57147;53.582;10.112;2023-04-25T16:04:43;7.78;;;1.55;;
69856;SDS011;57147;53.582;10.112;2023-04-25T16:09:44;7.53;;;1.45;;
69856;SDS011;57147;53.582;10.112;2023-04-25T16:14:47;6.10;;;0.88;;
69856;SDS011;57147;53.582;10.112;2023-04-25T16:19:48;7.90;;;1.77;;
69856;SDS011;57147;53.582;10.112;2023-04-25T16:24:48;4.50;;;1.23;;
69856;SDS011;57147;53.582;10.112;2023-04-25T16:29:52;6.07;;;1.98;;
69856;SDS011;57147;53.582;10.112;2023-04-25T16:34:53;6.68;;;1.50;;
69856;SDS011;57147;53.582;10.112;2023-04-25T16:39:54;8.38;;;4.15;;
69856;SDS011;57147;53.582;10.112;2023-04-25T16:44:58;6.53;;;1.20;;
69856;SDS011;57147;53.582;10.112;2023-04-25T16:49:58;5.00;;;1.00;;
69856;SDS011;57147;53.582;10.112;2023-04-25T16:55:00;6.65;;;1.77;;
69856;SDS011;57147;53.582;10.112;2023-04-25T17:00:04;3.78;;;0.77;;
69856;SDS011;57147;53.582;10.112;2023-04-25T17:05:06;4.75;;;1.05;;
69856;SDS011;57147;53.582;10.112;2023-04-25T17:10:08;7.07;;;4.30;;
69856;SDS011;57147;53.582;10.112;2023-04-25T17:15:12;2.53;;;0.95;;
69856;SDS011;57147;53.582;10.112;2023-04-25T17:20:13;2.63;;;1.20;;
69856;SDS011;57147;53.582;10.112;2023-04-25T17:25:13;5.05;;;1.67;;
69856;SDS011;57147;53.582;10.112;2023-04-25T17:30:17;5.45;;;1.77;;
69856;SDS011;57147;53.582;10.112;2023-04-25T17:35:17;3.22;;;1.10;;
69856;SDS011;57147;53.582;10.112;2023-04-25T17:40:18;7.90;;;2.22;;
69856;SDS011;57147;53.582;10.112;2023-04-25T17:45:22;5.13;;;1.35;;
69856;SDS011;57147;53.582;10.112;2023-04-25T17:50:23;3.33;;;1.95;;
69856;SDS011;57147;53.582;10.112;2023-04-25T17:55:23;3.20;;;1.50;;
69856;SDS011;57147;53.582;10.112;2023-04-25T18:00:26;3.38;;;1.52;;
69856;SDS011;57147;53.582;10.112;2023-04-25T18:05:27;4.45;;;1.42;;
69856;SDS011;57147;53.582;10.112;2023-04-25T18:10:28;7.97;;;1.95;;
69856;SDS011;57147;53.582;10.112;2023-04-25T18:15:31;5.47;;;1.30;;
69856;SDS011;57147;53.582;10.112;2023-04-25T18:20:32;6.55;;;1.98;;
69856;SDS011;57147;53.582;10.112;2023-04-25T18:25:32;4.00;;;1.40;;
69856;SDS011;57147;53.582;10.112;2023-04-25T18:30:36;6.22;;;1.63;;
69856;SDS011;57147;53.582;10.112;2023-04-25T18:35:36;5.65;;;1.23;;
69856;SDS011;57147;53.582;10.112;2023-04-25T18:40:37;8.50;;;2.38;;
69856;SDS011;57147;53.582;10.112;2023-04-25T18:45:40;6.22;;;2.08;;
69856;SDS011;57147;53.582;10.112;2023-04-25T18:50:41;6.40;;;1.55;;
69856;SDS011;57147;53.582;10.112;2023-04-25T18:55:42;6.82;;;1.67;;
69856;SDS011;57147;53.582;10.112;2023-04-25T19:00:45;6.57;;;1.27;;
69856;SDS011;57147;53.582;10.112;2023-04-25T19:05:45;11.35;;;3.70;;
69856;SDS011;57147;53.582;10.112;2023-04-25T19:10:47;4.50;;;1.63;;
69856;SDS011;57147;53.582;10.112;2023-04-25T19:15:50;7.57;;;2.08;;
69856;SDS011;57147;53.582;10.112;2023-04-25T19:20:51;9.07;;;2.42;;
69856;SDS011;57147;53.582;10.112;2023-04-25T19:25:51;8.00;;;2.45;;
69856;SDS011;57147;53.582;10.112;2023-04-25T19:30:55;6.90;;;2.28;;
69856;SDS011;57147;53.582;10.112;2023-04-25T19:35:55;11.07;;;1.35;;
69856;SDS011;57147;53.582;10.112;2023-04-25T19:40:56;4.72;;;1.73;;
69856;SDS011;57147;53.582;10.112;2023-04-25T19:45:59;7.00;;;2.10;;
69856;SDS011;57147;53.582;10.112;2023-04-25T19:51:00;6.32;;;2.08;;
69856;SDS011;57147;53.582;10.112;2023-04-25T19:56:01;8.45;;;2.08;;
69856;SDS011;57147;53.582;10.112;2023-04-25T20:01:07;8.65;;;1.85;;
69856;SDS011;57147;53.582;10.112;2023-04-25T20:11:09;5.10;;;1.33;;
69856;SDS011;57147;53.582;10.112;2023-04-25T20:16:12;6.88;;;2.85;;
69856;SDS011;57147;53.582;10.112;2023-04-25T20:21:13;9.30;;;2.50;;
69856;SDS011;57147;53.582;10.112;2023-04-25T20:26:13;9.05;;;1.95;;
69856;SDS011;57147;53.582;10.112;2023-04-25T20:31:16;5.72;;;1.38;;
69856;SDS011;57147;53.582;10.112;2023-04-25T20:36:17;7.68;;;1.70;;
69856;SDS011;57147;53.582;10.112;2023-04-25T20:41:18;11.48;;;3.28;;
69856;SDS011;57147;53.582;10.112;2023-04-25T20:46:21;8.27;;;2.30;;
69856;SDS011;57147;53.582;10.112;2023-04-25T20:51:22;7.70;;;1.73;;
69856;SDS011;57147;53.582;10.112;2023-04-25T20:56:23;10.43;;;5.13;;
69856;SDS011;57147;53.582;10.112;2023-04-25T21:01:26;7.20;;;2.28;;
69856;SDS011;57147;53.582;10.112;2023-04-25T21:06:27;10.48;;;2.83;;
69856;SDS011;57147;53.582;10.112;2023-04-25T21:11:27;8.77;;;1.55;;
69856;SDS011;57147;53.582;10.112;2023-04-25T21:16:30;6.80;;;1.85;;
69856;SDS011;57147;53.582;10.112;2023-04-25T21:21:31;10.32;;;1.58;;
69856;SDS011;57147;53.582;10.112;2023-04-25T21:26:32;9.13;;;2.42;;
69856;SDS011;57147;53.582;10.112;2023-04-25T21:31:36;8.57;;;2.10;;
69856;SDS011;57147;53.582;10.112;2023-04-25T21:36:38;6.10;;;1.67;;
69856;SDS011;57147;53.582;10.112;2023-04-25T21:41:38;6.68;;;1.77;;
69856;SDS011;57147;53.582;10.112;2023-04-25T21:46:41;6.32;;;1.98;;
69856;SDS011;57147;53.582;10.112;2023-04-25T21:51:42;10.60;;;4.57;;
69856;SDS011;57147;53.582;10.112;2023-04-25T21:56:43;6.90;;;2.35;;
69856;SDS011;57147;53.582;10.112;2023-04-25T22:01:47;8.98;;;1.83;;
69856;SDS011;57147;53.582;10.112;2023-04-25T22:06:48;6.80;;;1.80;;
69856;SDS011;57147;53.582;10.112;2023-04-25T22:11:48;9.57;;;4.25;;
69856;SDS011;57147;53.582;10.112;2023-04-25T22:16:52;6.43;;;1.55;;
69856;SDS011;57147;53.582;10.112;2023-04-25T22:21:52;3.63;;;1.85;;
69856;SDS011;57147;53.582;10.112;2023-04-25T22:26:53;6.18;;;1.35;;
69856;SDS011;57147;53.582;10.112;2023-04-25T22:31:56;5.93;;;1.55;;
69856;SDS011;57147;53.582;10.112;2023-04-25T22:36:57;4.63;;;1.77;;
69856;SDS011;57147;53.582;10.112;2023-04-25T22:41:57;4.38;;;1.77;;
69856;SDS011;57147;53.582;10.112;2023-04-25T22:47:00;3.05;;;1.65;;
69856;SDS011;57147;53.582;10.112;2023-04-25T22:52:01;7.35;;;1.58;;
69856;SDS011;57147;53.582;10.112;2023-04-25T22:57:05;3.13;;;2.20;;
69856;SDS011;57147;53.582;10.112;2023-04-25T23:02:08;5.35;;;1.42;;
69856;SDS011;57147;53.582;10.112;2023-04-25T23:07:08;5.80;;;2.60;;
69856;SDS011;57147;53.582;10.112;2023-04-25T23:12:09;7.60;;;1.00;;
69856;SDS011;57147;53.582;10.112;2023-04-25T23:17:12;4.97;;;1.38;;
69856;SDS011;57147;53.582;10.112;2023-04-25T23:22:13;7.90;;;1.40;;
69856;SDS011;57147;53.582;10.112;2023-04-25T23:27:13;5.13;;;1.40;;
69856;SDS011;57147;53.582;10.112;2023-04-25T23:32:17;4.30;;;1.00;;
69856;SDS011;57147;53.582;10.112;2023-04-25T23:37:18;9.23;;;1.23;;
69856;SDS011;57147;53.582;10.112;2023-04-25T23:42:18;10.25;;;1.60;;
69856;SDS011;57147;53.582;10.112;2023-04-25T23:47:21;10.30;;;2.95;;
69856;SDS011;57147;53.582;10.112;2023-04-25T23:52:23;5.93;;;1.70;;
69856;SDS011;57147;53.582;10.112;2023-04-25T23:57:23;7.82;;;1.98;;
